»·PEaware :: N9401L KPSP-KLAX

N9401L :: KPSP-KLAX

FLIGHT INFORMATION

Flight Status: Arrived
Operator: Privately registered:
United States
More flights under this callsign
Pilot: Juan D. (11620)
Aircraft: PIPER PA-28R-201 ARROW
(P28R)
More flights by this aircraft type
Origin: KPSP Palm Springs Intl
United States
Destination: KLAX Los Angeles Intl
United States
More flights between these airports :: More routes between these airports
Route: +CATH1 PSP V388 PDZ LAHAB
File this flight plan on PilotEdge
Remarks: TEC ROUTE PSPP10A
Altitude:
(Current/Filed)
10,000ft
Speed:
(Current/Filed)
130kts
Departed: 24-Oct-18 06:01 PM
Arrived: 24-Oct-18 07:02 PM
Distance/Time
Traveled:
94nm/1:00
Distance/Time
To Go:
Arrived

Flight Plot

Page will automatically refresh every two minutes.

Flight plan parsing failed; only flown route is shown


Map Options




Map Legend


Flown Route
Filed Route
Departure Airport
Arrival Airport
Navaid (VOR, NDB)
Fix

Horizontal Profiles

Position Reports

Time Latitude Longitude Heading Altitude Ground
Speed
24-Oct-18 17:26 33.822419 -116.497492 55 480ft 0kts
24-Oct-18 17:27 33.822419 -116.497492 55 480ft 0kts
24-Oct-18 17:28 33.822419 -116.497492 55 480ft 0kts
24-Oct-18 17:29 33.822419 -116.497492 55 480ft 0kts
24-Oct-18 17:30 33.822419 -116.497492 55 480ft 0kts
24-Oct-18 17:31 33.822419 -116.497492 55 480ft 0kts
24-Oct-18 17:32 33.822419 -116.497492 55 480ft 0kts
24-Oct-18 17:33 33.822419 -116.497492 55 480ft 0kts
24-Oct-18 17:34 33.822419 -116.497492 55 480ft 0kts
24-Oct-18 17:35 33.822419 -116.497492 55 480ft 0kts
24-Oct-18 17:36 33.822419 -116.497492 55 480ft 0kts
24-Oct-18 17:37 33.822419 -116.497492 55 480ft 0kts
24-Oct-18 17:38 33.822419 -116.497492 55 480ft 0kts
24-Oct-18 17:39 33.822426 -116.497478 58 480ft 0kts
24-Oct-18 17:40 33.822426 -116.497478 58 480ft 0kts
24-Oct-18 17:41 33.822426 -116.497478 58 480ft 0kts
24-Oct-18 17:42 33.822426 -116.497478 58 480ft 0kts
24-Oct-18 17:43 33.822426 -116.497478 58 480ft 0kts
24-Oct-18 17:44 33.822426 -116.497478 58 480ft 0kts
24-Oct-18 17:45 33.822426 -116.497478 58 480ft 0kts
24-Oct-18 17:46 33.822426 -116.497478 58 480ft 0kts
24-Oct-18 17:47 33.822426 -116.497478 58 480ft 0kts
24-Oct-18 17:48 33.822426 -116.497478 58 480ft 0kts
24-Oct-18 17:49 33.822426 -116.497478 58 480ft 0kts
24-Oct-18 17:50 33.822426 -116.497478 58 480ft 0kts
24-Oct-18 17:51 33.822426 -116.497478 58 480ft 0kts
24-Oct-18 17:52 33.822426 -116.497478 58 480ft 0kts
24-Oct-18 17:53 33.822426 -116.497478 58 480ft 0kts
24-Oct-18 17:54 33.822426 -116.497478 58 480ft 0kts
24-Oct-18 17:55 33.822426 -116.497478 58 480ft 0kts
24-Oct-18 17:56 33.822426 -116.497478 58 480ft 0kts
24-Oct-18 17:57 33.822426 -116.497478 58 480ft 0kts
24-Oct-18 17:58 33.822454 -116.497458 9 480ft 1kts
24-Oct-18 17:59 33.823619 -116.498215 324 480ft 7kts
24-Oct-18 18:00 33.824674 -116.499546 235 480ft 0kts
24-Oct-18 18:01 33.824674 -116.499546 235 480ft 0kts
24-Oct-18 18:02 33.824441 -116.499955 250 480ft 7kts
24-Oct-18 18:03 33.839053 -116.513543 319 1111ft 90kts
24-Oct-18 18:04 33.858179 -116.531702 319 2366ft 88kts
24-Oct-18 18:05 33.877959 -116.550005 319 3497ft 92kts
24-Oct-18 18:06 33.900035 -116.555234 55 4560ft 96kts
24-Oct-18 18:07 33.898088 -116.525644 108 5582ft 92kts
24-Oct-18 18:08 33.891276 -116.495695 107 6552ft 95kts
24-Oct-18 18:09 33.880665 -116.463620 113 7061ft 129kts
24-Oct-18 18:10 33.868092 -116.419194 78 7043ft 143kts
24-Oct-18 18:11 33.888952 -116.424030 272 7691ft 109kts
24-Oct-18 18:12 33.888031 -116.460530 270 8450ft 99kts
24-Oct-18 18:13 33.886619 -116.492188 269 9265ft 93kts
24-Oct-18 18:14 33.892589 -116.521538 289 10029ft 90kts
24-Oct-18 18:15 33.901948 -116.558181 289 10050ft 129kts
24-Oct-18 18:16 33.912723 -116.600425 288 10049ft 133kts
24-Oct-18 18:17 33.923608 -116.643215 288 10048ft 134kts
24-Oct-18 18:18 33.934489 -116.686070 288 10060ft 133kts
24-Oct-18 18:19 33.945246 -116.728497 288 10073ft 133kts
24-Oct-18 18:20 33.946978 -116.772963 270 10086ft 134kts
24-Oct-18 18:21 33.945330 -116.817887 270 10099ft 134kts
24-Oct-18 18:22 33.943685 -116.862628 270 10113ft 133kts
24-Oct-18 18:23 33.942034 -116.907009 270 10120ft 133kts
24-Oct-18 18:24 33.940357 -116.951706 270 10120ft 133kts
24-Oct-18 18:25 33.938671 -116.996662 271 9996ft 140kts
24-Oct-18 18:26 33.936817 -117.045479 271 9441ft 151kts
24-Oct-18 18:27 33.934574 -117.095661 270 8861ft 150kts
24-Oct-18 18:28 33.933284 -117.145533 272 8290ft 149kts
24-Oct-18 18:29 33.932019 -117.193316 272 7727ft 149kts
24-Oct-18 18:30 33.931707 -117.239855 272 7178ft 147kts
24-Oct-18 18:31 33.931372 -117.286668 271 6659ft 146kts
24-Oct-18 18:32 33.931006 -117.332836 271 6197ft 144kts
24-Oct-18 18:33 33.930616 -117.376348 270 6107ft 134kts
24-Oct-18 18:34 33.930234 -117.418066 271 6008ft 138kts
24-Oct-18 18:35 33.929821 -117.462149 271 5988ft 133kts
24-Oct-18 18:36 33.929402 -117.505822 271 5988ft 133kts
24-Oct-18 18:37 33.928971 -117.549328 271 5988ft 133kts
24-Oct-18 18:38 33.928518 -117.593532 272 5987ft 134kts
24-Oct-18 18:39 33.928063 -117.637875 271 5988ft 134kts
24-Oct-18 18:40 33.927589 -117.681634 270 5990ft 134kts
24-Oct-18 18:41 33.927103 -117.724742 270 5990ft 134kts
24-Oct-18 18:42 33.927012 -117.765240 271 5990ft 134kts
24-Oct-18 18:43 33.927605 -117.804916 271 5972ft 134kts
24-Oct-18 18:44 33.928323 -117.842767 271 5972ft 134kts
24-Oct-18 18:45 33.929054 -117.879319 271 5972ft 134kts
24-Oct-18 18:46 33.929690 -117.913845 271 5972ft 134kts
24-Oct-18 18:47 33.930257 -117.947356 271 5972ft 134kts
24-Oct-18 18:48 33.930792 -117.979322 271 5972ft 134kts
24-Oct-18 18:49 33.931261 -118.009632 271 5972ft 134kts
24-Oct-18 18:50 33.931929 -118.039111 271 5922ft 138kts
24-Oct-18 18:51 33.932787 -118.068181 271 5770ft 141kts
24-Oct-18 18:52 33.933663 -118.097600 271 5511ft 147kts
24-Oct-18 18:53 33.934573 -118.128006 272 5191ft 148kts
24-Oct-18 18:54 33.942294 -118.157934 290 4799ft 146kts
24-Oct-18 18:55 33.951752 -118.185399 291 4354ft 142kts
24-Oct-18 18:56 33.954500 -118.213487 262 3545ft 143kts
24-Oct-18 18:57 33.951515 -118.243244 262 2846ft 150kts
24-Oct-18 18:58 33.948293 -118.275816 262 2350ft 149kts
24-Oct-18 18:59 33.944750 -118.307833 261 1612ft 106kts
24-Oct-18 19:00 33.942439 -118.330623 261 955ft 83kts
24-Oct-18 19:01 33.940635 -118.348679 260 741ft 69kts
24-Oct-18 19:02 33.938719 -118.367557 261 407ft 68kts
24-Oct-18 19:03 33.937119 -118.385198 261 130ft 56kts
24-Oct-18 19:04 33.936301 -118.390795 231 128ft 11kts
24-Oct-18 19:05 33.935301 -118.391138 205 128ft 0kts
24-Oct-18 19:06 33.935251 -118.391392 261 128ft 0kts

Navigation Log

Ident Type
Flight plan parsing failed, navigation log unavailable